sensor_id;sensor_type;location;lat;lon;timestamp;temperature;humidity
13203;DHT22;6666;51.626;7.530;2023-04-12T00:00:05;9.30;99.90
13203;DHT22;6666;51.626;7.530;2023-04-12T00:02:37;9.30;99.90
13203;DHT22;6666;51.626;7.530;2023-04-12T00:05:06;9.30;99.90
13203;DHT22;6666;51.626;7.530;2023-04-12T00:07:35;9.20;99.90
13203;DHT22;6666;51.626;7.530;2023-04-12T00:10:05;9.30;99.90
13203;DHT22;6666;51.626;7.530;2023-04-12T00:12:34;9.30;99.90
13203;DHT22;6666;51.626;7.530;2023-04-12T00:15:04;9.30;99.90
13203;DHT22;6666;51.626;7.530;2023-04-12T00:17:34;9.30;99.90
13203;DHT22;6666;51.626;7.530;2023-04-12T00:20:02;9.30;99.90
13203;DHT22;6666;51.626;7.530;2023-04-12T00:22:37;9.30;99.90
13203;DHT22;6666;51.626;7.530;2023-04-12T00:25:07;9.20;99.90
13203;DHT22;6666;51.626;7.530;2023-04-12T00:27:36;9.30;99.90
13203;DHT22;6666;51.626;7.530;2023-04-12T00:30:07;9.30;99.90
13203;DHT22;6666;51.626;7.530;2023-04-12T00:32:36;9.40;99.90
13203;DHT22;6666;51.626;7.530;2023-04-12T00:35:05;9.40;99.90
13203;DHT22;6666;51.626;7.530;2023-04-12T00:37:33;9.40;99.90
13203;DHT22;6666;51.626;7.530;2023-04-12T00:40:05;9.40;99.90
13203;DHT22;6666;51.626;7.530;2023-04-12T00:42:35;9.40;99.90
13203;DHT22;6666;51.626;7.530;2023-04-12T00:45:06;9.50;99.90
13203;DHT22;6666;51.626;7.530;2023-04-12T00:47:36;9.40;99.90
13203;DHT22;6666;51.626;7.530;2023-04-12T00:50:06;9.40;99.90
13203;DHT22;6666;51.626;7.530;2023-04-12T00:52:35;9.40;99.90
13203;DHT22;6666;51.626;7.530;2023-04-12T00:55:06;9.40;99.90
13203;DHT22;6666;51.626;7.530;2023-04-12T00:57:37;9.40;99.90
13203;DHT22;6666;51.626;7.530;2023-04-12T01:00:09;9.50;99.90
13203;DHT22;6666;51.626;7.530;2023-04-12T01:02:40;9.60;99.90
13203;DHT22;6666;51.626;7.530;2023-04-12T01:05:16;9.60;99.90
13203;DHT22;6666;51.626;7.530;2023-04-12T01:07:59;9.60;99.90
13203;DHT22;6666;51.626;7.530;2023-04-12T01:10:39;9.60;99.90
13203;DHT22;6666;51.626;7.530;2023-04-12T01:13:18;9.60;99.90
13203;DHT22;6666;51.626;7.530;2023-04-12T01:16:01;9.60;99.90
13203;DHT22;6666;51.626;7.530;2023-04-12T01:18:36;9.70;99.90
13203;DHT22;6666;51.626;7.530;2023-04-12T01:21:12;9.70;99.90
13203;DHT22;6666;51.626;7.530;2023-04-12T01:24:00;9.70;99.90
13203;DHT22;6666;51.626;7.530;2023-04-12T01:26:33;9.80;99.90
13203;DHT22;6666;51.626;7.530;2023-04-12T01:29:08;9.80;99.90
13203;DHT22;6666;51.626;7.530;2023-04-12T01:31:40;9.80;99.90
13203;DHT22;6666;51.626;7.530;2023-04-12T01:34:09;9.80;99.90
13203;DHT22;6666;51.626;7.530;2023-04-12T01:36:40;9.80;99.90
13203;DHT22;6666;51.626;7.530;2023-04-12T01:39:10;9.90;99.90
13203;DHT22;6666;51.626;7.530;2023-04-12T01:41:39;9.90;99.90
13203;DHT22;6666;51.626;7.530;2023-04-12T01:44:16;9.90;99.90
13203;DHT22;6666;51.626;7.530;2023-04-12T01:46:45;9.90;99.90
13203;DHT22;6666;51.626;7.530;2023-04-12T01:49:15;9.90;99.90
13203;DHT22;6666;51.626;7.530;2023-04-12T01:51:50;9.90;99.90
13203;DHT22;6666;51.626;7.530;2023-04-12T01:54:22;9.90;99.90
13203;DHT22;6666;51.626;7.530;2023-04-12T01:56:55;9.90;99.90
13203;DHT22;6666;51.626;7.530;2023-04-12T01:59:30;9.80;99.90
13203;DHT22;6666;51.626;7.530;2023-04-12T02:02:00;9.90;99.90
13203;DHT22;6666;51.626;7.530;2023-04-12T02:04:31;9.90;99.90
13203;DHT22;6666;51.626;7.530;2023-04-12T02:07:00;9.90;99.90
13203;DHT22;6666;51.626;7.530;2023-04-12T02:09:29;9.90;99.90
13203;DHT22;6666;51.626;7.530;2023-04-12T02:11:57;9.90;99.90
13203;DHT22;6666;51.626;7.530;2023-04-12T02:14:28;9.80;99.90
13203;DHT22;6666;51.626;7.530;2023-04-12T02:16:57;9.80;99.90
13203;DHT22;6666;51.626;7.530;2023-04-12T02:19:28;9.80;99.90
13203;DHT22;6666;51.626;7.530;2023-04-12T02:21:57;9.80;99.90
13203;DHT22;6666;51.626;7.530;2023-04-12T02:24:28;9.80;99.90
13203;DHT22;6666;51.626;7.530;2023-04-12T02:26:57;9.70;99.90
13203;DHT22;6666;51.626;7.530;2023-04-12T02:29:29;9.70;99.90
13203;DHT22;6666;51.626;7.530;2023-04-12T02:31:57;9.70;99.90
13203;DHT22;6666;51.626;7.530;2023-04-12T02:34:26;9.70;99.90
13203;DHT22;6666;51.626;7.530;2023-04-12T02:37:12;9.70;99.90
13203;DHT22;6666;51.626;7.530;2023-04-12T02:39:42;9.60;99.90
13203;DHT22;6666;51.626;7.530;2023-04-12T02:42:11;9.60;99.90
13203;DHT22;6666;51.626;7.530;2023-04-12T02:44:41;9.60;99.90
13203;DHT22;6666;51.626;7.530;2023-04-12T02:47:14;9.60;99.90
13203;DHT22;6666;51.626;7.530;2023-04-12T02:49:46;9.50;99.90
13203;DHT22;6666;51.626;7.530;2023-04-12T02:52:16;9.60;99.90
13203;DHT22;6666;51.626;7.530;2023-04-12T02:55:04;9.60;99.90
13203;DHT22;6666;51.626;7.530;2023-04-12T02:57:32;9.60;99.90
13203;DHT22;6666;51.626;7.530;2023-04-12T03:00:05;9.50;99.90
13203;DHT22;6666;51.626;7.530;2023-04-12T03:02:40;9.60;99.90
13203;DHT22;6666;51.626;7.530;2023-04-12T03:05:14;9.50;99.90
13203;DHT22;6666;51.626;7.530;2023-04-12T03:07:43;9.50;99.90
13203;DHT22;6666;51.626;7.530;2023-04-12T03:10:13;9.50;99.90
13203;DHT22;6666;51.626;7.530;2023-04-12T03:12:53;9.50;99.90
13203;DHT22;6666;51.626;7.530;2023-04-12T03:15:30;9.40;99.90
13203;DHT22;6666;51.626;7.530;2023-04-12T03:18:00;9.40;99.90
13203;DHT22;6666;51.626;7.530;2023-04-12T03:20:32;9.40;99.90
13203;DHT22;6666;51.626;7.530;2023-04-12T03:23:04;9.40;99.90
13203;DHT22;6666;51.626;7.530;2023-04-12T03:25:35;9.40;99.90
13203;DHT22;6666;51.626;7.530;2023-04-12T03:28:22;9.40;99.90
13203;DHT22;6666;51.626;7.530;2023-04-12T03:30:53;9.40;99.90
13203;DHT22;6666;51.626;7.530;2023-04-12T03:33:27;9.30;99.90
13203;DHT22;6666;51.626;7.530;2023-04-12T03:36:01;9.30;99.90
13203;DHT22;6666;51.626;7.530;2023-04-12T03:38:30;9.20;99.90
13203;DHT22;6666;51.626;7.530;2023-04-12T03:40:59;9.20;99.90
13203;DHT22;6666;51.626;7.530;2023-04-12T03:43:36;9.10;99.90
13203;DHT22;6666;51.626;7.530;2023-04-12T03:46:15;9.20;99.90
13203;DHT22;6666;51.626;7.530;2023-04-12T03:48:50;9.20;99.90
13203;DHT22;6666;51.626;7.530;2023-04-12T03:51:20;9.10;99.90
13203;DHT22;6666;51.626;7.530;2023-04-12T03:53:58;9.10;99.90
13203;DHT22;6666;51.626;7.530;2023-04-12T03:56:35;9.10;99.90
13203;DHT22;6666;51.626;7.530;2023-04-12T03:59:10;9.10;99.90
13203;DHT22;6666;51.626;7.530;2023-04-12T04:01:44;9.10;99.90
13203;DHT22;6666;51.626;7.530;2023-04-12T04:04:12;9.10;99.90
13203;DHT22;6666;51.626;7.530;2023-04-12T04:06:41;9.20;99.90
13203;DHT22;6666;51.626;7.530;2023-04-12T04:09:10;9.10;99.90
13203;DHT22;6666;51.626;7.530;2023-04-12T04:11:38;9.20;99.90
13203;DHT22;6666;51.626;7.530;2023-04-12T04:14:07;9.20;99.90
13203;DHT22;6666;51.626;7.530;2023-04-12T04:16:35;9.10;99.90
13203;DHT22;6666;51.626;7.530;2023-04-12T04:19:07;9.10;99.90
13203;DHT22;6666;51.626;7.530;2023-04-12T04:21:35;9.20;99.90
13203;DHT22;6666;51.626;7.530;2023-04-12T04:24:08;9.10;99.90
13203;DHT22;6666;51.626;7.530;2023-04-12T04:26:40;9.20;99.90
13203;DHT22;6666;51.626;7.530;2023-04-12T04:29:19;9.20;99.90
13203;DHT22;6666;51.626;7.530;2023-04-12T04:31:48;9.20;99.90
13203;DHT22;6666;51.626;7.530;2023-04-12T04:34:18;9.20;99.90
13203;DHT22;6666;51.626;7.530;2023-04-12T04:36:50;9.10;99.90
13203;DHT22;6666;51.626;7.530;2023-04-12T04:39:25;9.20;99.90
13203;DHT22;6666;51.626;7.530;2023-04-12T04:41:56;9.20;99.90
13203;DHT22;6666;51.626;7.530;2023-04-12T04:44:34;9.20;99.90
13203;DHT22;6666;51.626;7.530;2023-04-12T04:47:06;9.20;99.90
13203;DHT22;6666;51.626;7.530;2023-04-12T04:49:36;9.20;99.90
13203;DHT22;6666;51.626;7.530;2023-04-12T04:52:18;9.20;99.90
13203;DHT22;6666;51.626;7.530;2023-04-12T04:54:48;9.20;99.90
13203;DHT22;6666;51.626;7.530;2023-04-12T04:57:17;9.20;99.90
13203;DHT22;6666;51.626;7.530;2023-04-12T04:59:46;9.20;99.90
13203;DHT22;6666;51.626;7.530;2023-04-12T05:02:16;9.20;99.90
13203;DHT22;6666;51.626;7.530;2023-04-12T05:04:46;9.30;99.90
13203;DHT22;6666;51.626;7.530;2023-04-12T05:07:18;9.20;99.90
13203;DHT22;6666;51.626;7.530;2023-04-12T05:09:47;9.20;99.90
13203;DHT22;6666;51.626;7.530;2023-04-12T05:12:18;9.30;99.90
13203;DHT22;6666;51.626;7.530;2023-04-12T05:14:51;9.20;99.90
13203;DHT22;6666;51.626;7.530;2023-04-12T05:17:34;9.30;99.90
13203;DHT22;6666;51.626;7.530;2023-04-12T05:20:05;9.30;99.90
13203;DHT22;6666;51.626;7.530;2023-04-12T05:22:35;9.30;99.90
13203;DHT22;6666;51.626;7.530;2023-04-12T05:25:04;9.30;99.90
13203;DHT22;6666;51.626;7.530;2023-04-12T05:27:38;9.30;99.90
13203;DHT22;6666;51.626;7.530;2023-04-12T05:30:09;9.30;99.90
13203;DHT22;6666;51.626;7.530;2023-04-12T05:32:37;9.20;99.90
13203;DHT22;6666;51.626;7.530;2023-04-12T05:35:08;9.20;99.90
13203;DHT22;6666;51.626;7.530;2023-04-12T05:37:39;9.20;99.90
13203;DHT22;6666;51.626;7.530;2023-04-12T05:40:08;9.20;99.90
13203;DHT22;6666;51.626;7.530;2023-04-12T05:42:37;9.20;99.90
13203;DHT22;6666;51.626;7.530;2023-04-12T05:45:06;9.10;99.90
13203;DHT22;6666;51.626;7.530;2023-04-12T05:47:35;9.10;99.90
13203;DHT22;6666;51.626;7.530;2023-04-12T05:50:04;9.20;99.90
13203;DHT22;6666;51.626;7.530;2023-04-12T05:52:35;9.10;99.90
13203;DHT22;6666;51.626;7.530;2023-04-12T05:55:06;9.10;99.90
13203;DHT22;6666;51.626;7.530;2023-04-12T05:57:38;9.00;99.90
13203;DHT22;6666;51.626;7.530;2023-04-12T06:00:07;9.00;99.90
13203;DHT22;6666;51.626;7.530;2023-04-12T06:02:43;9.00;99.90
13203;DHT22;6666;51.626;7.530;2023-04-12T06:05:11;8.90;99.90
13203;DHT22;6666;51.626;7.530;2023-04-12T06:07:42;8.90;99.90
13203;DHT22;6666;51.626;7.530;2023-04-12T06:10:13;8.90;99.90
13203;DHT22;6666;51.626;7.530;2023-04-12T06:12:46;8.80;99.90
13203;DHT22;6666;51.626;7.530;2023-04-12T06:15:14;8.80;99.90
13203;DHT22;6666;51.626;7.530;2023-04-12T06:17:43;8.90;99.90
13203;DHT22;6666;51.626;7.530;2023-04-12T06:20:12;8.90;99.90
13203;DHT22;6666;51.626;7.530;2023-04-12T06:22:42;8.90;99.90
13203;DHT22;6666;51.626;7.530;2023-04-12T06:25:14;8.90;99.90
13203;DHT22;6666;51.626;7.530;2023-04-12T06:27:45;8.80;99.90
13203;DHT22;6666;51.626;7.530;2023-04-12T06:30:15;8.80;99.90
13203;DHT22;6666;51.626;7.530;2023-04-12T06:32:43;8.90;99.90
13203;DHT22;6666;51.626;7.530;2023-04-12T06:35:12;8.80;99.90
13203;DHT22;6666;51.626;7.530;2023-04-12T06:37:42;8.90;99.90
13203;DHT22;6666;51.626;7.530;2023-04-12T06:40:10;8.90;99.90
13203;DHT22;6666;51.626;7.530;2023-04-12T06:42:39;9.00;99.90
13203;DHT22;6666;51.626;7.530;2023-04-12T06:45:09;8.90;99.90
13203;DHT22;6666;51.626;7.530;2023-04-12T06:47:38;8.90;99.90
13203;DHT22;6666;51.626;7.530;2023-04-12T06:50:07;9.00;99.90
13203;DHT22;6666;51.626;7.530;2023-04-12T06:52:35;9.00;99.90
13203;DHT22;6666;51.626;7.530;2023-04-12T06:55:06;9.10;99.90
13203;DHT22;6666;51.626;7.530;2023-04-12T06:57:34;9.10;99.90
13203;DHT22;6666;51.626;7.530;2023-04-12T07:00:03;9.00;99.90
13203;DHT22;6666;51.626;7.530;2023-04-12T07:02:31;9.00;99.90
13203;DHT22;6666;51.626;7.530;2023-04-12T07:05:00;9.10;99.90
13203;DHT22;6666;51.626;7.530;2023-04-12T07:07:29;9.20;99.90
13203;DHT22;6666;51.626;7.530;2023-04-12T07:09:57;9.30;99.90
13203;DHT22;6666;51.626;7.530;2023-04-12T07:12:27;9.30;99.90
13203;DHT22;6666;51.626;7.530;2023-04-12T07:14:55;9.30;99.90
13203;DHT22;6666;51.626;7.530;2023-04-12T07:17:24;9.40;99.90
13203;DHT22;6666;51.626;7.530;2023-04-12T07:19:53;9.30;99.90
13203;DHT22;6666;51.626;7.530;2023-04-12T07:22:21;9.30;99.90
13203;DHT22;6666;51.626;7.530;2023-04-12T07:24:50;9.40;99.90
13203;DHT22;6666;51.626;7.530;2023-04-12T07:27:18;9.50;99.90
13203;DHT22;6666;51.626;7.530;2023-04-12T07:29:50;9.60;99.90
13203;DHT22;6666;51.626;7.530;2023-04-12T07:32:18;9.50;99.90
13203;DHT22;6666;51.626;7.530;2023-04-12T07:34:47;9.50;99.90
13203;DHT22;6666;51.626;7.530;2023-04-12T07:37:15;9.40;99.90
13203;DHT22;6666;51.626;7.530;2023-04-12T07:39:44;9.30;99.90
13203;DHT22;6666;51.626;7.530;2023-04-12T07:42:13;9.30;99.90
13203;DHT22;6666;51.626;7.530;2023-04-12T07:44:41;9.40;99.90
13203;DHT22;6666;51.626;7.530;2023-04-12T07:47:11;9.50;99.90
13203;DHT22;6666;51.626;7.530;2023-04-12T07:49:39;9.60;99.90
13203;DHT22;6666;51.626;7.530;2023-04-12T07:52:07;9.50;99.90
13203;DHT22;6666;51.626;7.530;2023-04-12T07:54:36;9.50;99.90
13203;DHT22;6666;51.626;7.530;2023-04-12T07:57:05;9.60;99.90
13203;DHT22;6666;51.626;7.530;2023-04-12T07:59:34;9.60;99.90
13203;DHT22;6666;51.626;7.530;2023-04-12T08:02:03;9.70;99.90
13203;DHT22;6666;51.626;7.530;2023-04-12T08:04:33;9.90;99.90
13203;DHT22;6666;51.626;7.530;2023-04-12T08:07:02;10.00;99.90
13203;DHT22;6666;51.626;7.530;2023-04-12T08:09:30;10.00;99.90
13203;DHT22;6666;51.626;7.530;2023-04-12T08:11:58;10.00;99.90
13203;DHT22;6666;51.626;7.530;2023-04-12T08:14:27;10.20;99.90
13203;DHT22;6666;51.626;7.530;2023-04-12T08:16:55;10.20;99.90
13203;DHT22;6666;51.626;7.530;2023-04-12T08:19:24;10.20;99.90
13203;DHT22;6666;51.626;7.530;2023-04-12T08:21:53;10.30;99.90
13203;DHT22;6666;51.626;7.530;2023-04-12T08:24:21;10.30;99.90
13203;DHT22;6666;51.626;7.530;2023-04-12T08:26:50;10.40;99.90
13203;DHT22;6666;51.626;7.530;2023-04-12T08:29:18;10.40;99.90
13203;DHT22;6666;51.626;7.530;2023-04-12T08:31:46;10.50;99.90
13203;DHT22;6666;51.626;7.530;2023-04-12T08:34:15;10.50;99.90
13203;DHT22;6666;51.626;7.530;2023-04-12T08:36:43;10.30;99.90
13203;DHT22;6666;51.626;7.530;2023-04-12T08:39:13;10.30;99.90
13203;DHT22;6666;51.626;7.530;2023-04-12T08:41:41;10.20;99.90
13203;DHT22;6666;51.626;7.530;2023-04-12T08:44:10;10.20;99.90
13203;DHT22;6666;51.626;7.530;2023-04-12T08:46:39;10.20;99.90
13203;DHT22;6666;51.626;7.530;2023-04-12T08:49:09;10.10;99.90
13203;DHT22;6666;51.626;7.530;2023-04-12T08:51:38;10.10;99.90
13203;DHT22;6666;51.626;7.530;2023-04-12T08:54:07;10.20;99.90
13203;DHT22;6666;51.626;7.530;2023-04-12T08:56:37;10.10;99.90
13203;DHT22;6666;51.626;7.530;2023-04-12T08:59:08;10.10;99.90
13203;DHT22;6666;51.626;7.530;2023-04-12T09:01:40;10.30;99.90
13203;DHT22;6666;51.626;7.530;2023-04-12T09:04:08;10.40;99.90
13203;DHT22;6666;51.626;7.530;2023-04-12T09:06:37;10.50;99.90
13203;DHT22;6666;51.626;7.530;2023-04-12T09:09:07;10.80;99.90
13203;DHT22;6666;51.626;7.530;2023-04-12T09:11:37;10.80;99.90
13203;DHT22;6666;51.626;7.530;2023-04-12T09:14:19;10.80;99.90
13203;DHT22;6666;51.626;7.530;2023-04-12T09:16:48;10.90;99.90
13203;DHT22;6666;51.626;7.530;2023-04-12T09:19:30;10.80;99.90
13203;DHT22;6666;51.626;7.530;2023-04-12T09:21:58;10.70;99.90
13203;DHT22;6666;51.626;7.530;2023-04-12T09:24:28;10.70;99.90
13203;DHT22;6666;51.626;7.530;2023-04-12T09:27:02;10.70;99.90
13203;DHT22;6666;51.626;7.530;2023-04-12T09:29:32;10.60;99.90
13203;DHT22;6666;51.626;7.530;2023-04-12T09:32:02;10.60;99.90
13203;DHT22;6666;51.626;7.530;2023-04-12T09:34:31;10.60;99.90
13203;DHT22;6666;51.626;7.530;2023-04-12T09:37:11;10.60;99.90
13203;DHT22;6666;51.626;7.530;2023-04-12T09:39:41;10.70;99.90
13203;DHT22;6666;51.626;7.530;2023-04-12T09:42:12;10.70;99.90
13203;DHT22;6666;51.626;7.530;2023-04-12T09:45:00;10.80;99.90
13203;DHT22;6666;51.626;7.530;2023-04-12T09:47:38;10.80;99.90
13203;DHT22;6666;51.626;7.530;2023-04-12T09:50:08;10.80;99.90
13203;DHT22;6666;51.626;7.530;2023-04-12T09:52:37;10.70;99.90
13203;DHT22;6666;51.626;7.530;2023-04-12T09:55:08;10.70;99.90
13203;DHT22;6666;51.626;7.530;2023-04-12T09:57:40;10.90;99.90
13203;DHT22;6666;51.626;7.530;2023-04-12T10:00:10;11.10;99.90
13203;DHT22;6666;51.626;7.530;2023-04-12T10:02:44;11.30;99.90
13203;DHT22;6666;51.626;7.530;2023-04-12T10:05:16;11.30;99.90
13203;DHT22;6666;51.626;7.530;2023-04-12T10:07:46;11.40;99.90
13203;DHT22;6666;51.626;7.530;2023-04-12T10:10:16;11.40;99.90
13203;DHT22;6666;51.626;7.530;2023-04-12T10:12:47;11.50;99.90
13203;DHT22;6666;51.626;7.530;2023-04-12T10:15:16;11.50;99.90
13203;DHT22;6666;51.626;7.530;2023-04-12T10:17:54;11.50;99.90
13203;DHT22;6666;51.626;7.530;2023-04-12T10:20:23;11.40;99.90
13203;DHT22;6666;51.626;7.530;2023-04-12T10:22:56;11.20;99.90
13203;DHT22;6666;51.626;7.530;2023-04-12T10:25:28;11.10;99.90
13203;DHT22;6666;51.626;7.530;2023-04-12T10:28:12;11.20;99.90
13203;DHT22;6666;51.626;7.530;2023-04-12T10:30:41;11.20;99.90
13203;DHT22;6666;51.626;7.530;2023-04-12T10:33:17;11.50;99.90
13203;DHT22;6666;51.626;7.530;2023-04-12T10:35:56;11.60;99.90
13203;DHT22;6666;51.626;7.530;2023-04-12T10:38:29;11.80;99.90
13203;DHT22;6666;51.626;7.530;2023-04-12T10:41:11;12.00;99.90
13203;DHT22;6666;51.626;7.530;2023-04-12T10:43:42;12.30;99.90
13203;DHT22;6666;51.626;7.530;2023-04-12T10:46:50;12.60;99.90
13203;DHT22;6666;51.626;7.530;2023-04-12T10:49:19;12.70;99.90
13203;DHT22;6666;51.626;7.530;2023-04-12T10:52:13;12.70;99.90
13203;DHT22;6666;51.626;7.530;2023-04-12T10:54:44;12.80;99.90
13203;DHT22;6666;51.626;7.530;2023-04-12T10:57:40;12.60;99.90
13203;DHT22;6666;51.626;7.530;2023-04-12T11:00:12;12.60;99.90
13203;DHT22;6666;51.626;7.530;2023-04-12T11:03:03;12.50;99.90
13203;DHT22;6666;51.626;7.530;2023-04-12T11:05:57;12.50;99.90
13203;DHT22;6666;51.626;7.530;2023-04-12T11:09:01;12.50;99.90
13203;DHT22;6666;51.626;7.530;2023-04-12T11:11:33;12.30;99.90
13203;DHT22;6666;51.626;7.530;2023-04-12T11:14:01;12.30;99.90
13203;DHT22;6666;51.626;7.530;2023-04-12T11:16:31;12.30;99.90
13203;DHT22;6666;51.626;7.530;2023-04-12T11:18:59;12.10;99.90
13203;DHT22;6666;51.626;7.530;2023-04-12T11:21:28;12.00;99.90
13203;DHT22;6666;51.626;7.530;2023-04-12T11:23:57;11.80;99.90
13203;DHT22;6666;51.626;7.530;2023-04-12T11:26:29;11.60;99.90
13203;DHT22;6666;51.626;7.530;2023-04-12T11:28:58;11.60;99.90
13203;DHT22;6666;51.626;7.530;2023-04-12T11:31:37;11.50;99.90
13203;DHT22;6666;51.626;7.530;2023-04-12T11:34:05;11.50;99.90
13203;DHT22;6666;51.626;7.530;2023-04-12T11:36:33;11.30;99.90
13203;DHT22;6666;51.626;7.530;2023-04-12T11:39:03;11.20;99.90
13203;DHT22;6666;51.626;7.530;2023-04-12T11:41:31;11.20;99.90
13203;DHT22;6666;51.626;7.530;2023-04-12T11:43:59;11.00;99.90
13203;DHT22;6666;51.626;7.530;2023-04-12T11:46:32;11.00;99.90
13203;DHT22;6666;51.626;7.530;2023-04-12T11:49:02;10.90;99.90
13203;DHT22;6666;51.626;7.530;2023-04-12T11:51:31;10.80;99.90
13203;DHT22;6666;51.626;7.530;2023-04-12T11:54:00;11.00;99.90
13203;DHT22;6666;51.626;7.530;2023-04-12T11:56:28;11.30;99.90
13203;DHT22;6666;51.626;7.530;2023-04-12T11:58:58;11.40;99.90
13203;DHT22;6666;51.626;7.530;2023-04-12T12:01:26;11.50;99.90
13203;DHT22;6666;51.626;7.530;2023-04-12T12:03:55;11.70;99.90
13203;DHT22;6666;51.626;7.530;2023-04-12T12:06:26;11.80;99.90
13203;DHT22;6666;51.626;7.530;2023-04-12T12:08:55;11.90;99.90
13203;DHT22;6666;51.626;7.530;2023-04-12T12:11:24;12.00;99.90
13203;DHT22;6666;51.626;7.530;2023-04-12T12:13:54;12.00;99.90
13203;DHT22;6666;51.626;7.530;2023-04-12T12:16:24;12.00;99.90
13203;DHT22;6666;51.626;7.530;2023-04-12T12:18:54;11.90;99.90
13203;DHT22;6666;51.626;7.530;2023-04-12T12:21:22;11.60;99.90
13203;DHT22;6666;51.626;7.530;2023-04-12T12:23:55;11.40;99.90
13203;DHT22;6666;51.626;7.530;2023-04-12T12:26:26;11.40;99.90
13203;DHT22;6666;51.626;7.530;2023-04-12T12:28:56;11.10;99.90
13203;DHT22;6666;51.626;7.530;2023-04-12T12:31:27;10.90;99.90
13203;DHT22;6666;51.626;7.530;2023-04-12T12:33:56;10.90;99.90
13203;DHT22;6666;51.626;7.530;2023-04-12T12:36:29;11.00;99.90
13203;DHT22;6666;51.626;7.530;2023-04-12T12:39:05;11.40;99.90
13203;DHT22;6666;51.626;7.530;2023-04-12T12:41:37;11.70;99.90
13203;DHT22;6666;51.626;7.530;2023-04-12T12:44:05;12.00;99.90
13203;DHT22;6666;51.626;7.530;2023-04-12T12:46:34;12.20;99.90
13203;DHT22;6666;51.626;7.530;2023-04-12T12:49:19;12.30;99.90
13203;DHT22;6666;51.626;7.530;2023-04-12T12:51:49;12.20;99.90
13203;DHT22;6666;51.626;7.530;2023-04-12T12:54:19;12.20;99.90
13203;DHT22;6666;51.626;7.530;2023-04-12T12:57:05;12.20;99.90
13203;DHT22;6666;51.626;7.530;2023-04-12T12:59:34;12.10;99.90
13203;DHT22;6666;51.626;7.530;2023-04-12T13:02:02;12.20;99.90
13203;DHT22;6666;51.626;7.530;2023-04-12T13:04:31;12.30;99.90
13203;DHT22;6666;51.626;7.530;2023-04-12T13:07:00;12.50;99.90
13203;DHT22;6666;51.626;7.530;2023-04-12T13:09:30;12.70;99.90
13203;DHT22;6666;51.626;7.530;2023-04-12T13:11:59;12.70;99.90
13203;DHT22;6666;51.626;7.530;2023-04-12T13:14:27;12.80;99.90
13203;DHT22;6666;51.626;7.530;2023-04-12T13:16:56;12.80;99.90
13203;DHT22;6666;51.626;7.530;2023-04-12T13:19:24;13.00;99.90
13203;DHT22;6666;51.626;7.530;2023-04-12T13:21:53;12.80;99.90
13203;DHT22;6666;51.626;7.530;2023-04-12T13:24:21;12.70;99.90
13203;DHT22;6666;51.626;7.530;2023-04-12T13:26:51;12.70;99.90
13203;DHT22;6666;51.626;7.530;2023-04-12T13:29:19;12.70;99.90
13203;DHT22;6666;51.626;7.530;2023-04-12T13:31:47;12.70;99.90
13203;DHT22;6666;51.626;7.530;2023-04-12T13:34:16;12.80;99.90
13203;DHT22;6666;51.626;7.530;2023-04-12T13:36:44;12.90;99.90
13203;DHT22;6666;51.626;7.530;2023-04-12T13:39:12;12.80;99.90
13203;DHT22;6666;51.626;7.530;2023-04-12T13:41:41;12.80;99.90
13203;DHT22;6666;51.626;7.530;2023-04-12T13:44:10;12.80;99.90
13203;DHT22;6666;51.626;7.530;2023-04-12T13:46:39;12.80;99.90
13203;DHT22;6666;51.626;7.530;2023-04-12T13:49:07;12.90;99.90
13203;DHT22;6666;51.626;7.530;2023-04-12T13:51:36;12.80;99.90
13203;DHT22;6666;51.626;7.530;2023-04-12T13:54:04;13.00;99.90
13203;DHT22;6666;51.626;7.530;2023-04-12T13:56:32;13.00;99.90
13203;DHT22;6666;51.626;7.530;2023-04-12T13:59:01;13.00;99.90
13203;DHT22;6666;51.626;7.530;2023-04-12T14:01:30;13.20;99.90
13203;DHT22;6666;51.626;7.530;2023-04-12T14:03:59;13.20;99.90
13203;DHT22;6666;51.626;7.530;2023-04-12T14:06:27;13.40;99.90
13203;DHT22;6666;51.626;7.530;2023-04-12T14:08:56;13.30;99.90
13203;DHT22;6666;51.626;7.530;2023-04-12T14:11:25;13.30;99.90
13203;DHT22;6666;51.626;7.530;2023-04-12T14:13:53;13.20;99.90
13203;DHT22;6666;51.626;7.530;2023-04-12T14:16:22;13.30;99.90
13203;DHT22;6666;51.626;7.530;2023-04-12T14:18:51;13.40;99.90
13203;DHT22;6666;51.626;7.530;2023-04-12T14:21:19;13.60;99.90
13203;DHT22;6666;51.626;7.530;2023-04-12T14:23:51;13.60;99.90
13203;DHT22;6666;51.626;7.530;2023-04-12T14:26:19;13.60;99.90
13203;DHT22;6666;51.626;7.530;2023-04-12T14:28:47;13.40;99.90
13203;DHT22;6666;51.626;7.530;2023-04-12T14:31:16;13.20;99.90
13203;DHT22;6666;51.626;7.530;2023-04-12T14:33:45;13.20;99.90
13203;DHT22;6666;51.626;7.530;2023-04-12T14:36:14;13.30;99.90
13203;DHT22;6666;51.626;7.530;2023-04-12T14:38:43;13.20;99.90
13203;DHT22;6666;51.626;7.530;2023-04-12T14:41:11;13.20;99.90
13203;DHT22;6666;51.626;7.530;2023-04-12T14:43:40;13.10;99.90
13203;DHT22;6666;51.626;7.530;2023-04-12T14:46:09;13.00;99.90
13203;DHT22;6666;51.626;7.530;2023-04-12T14:48:38;13.00;99.90
13203;DHT22;6666;51.626;7.530;2023-04-12T14:51:07;12.40;99.90
13203;DHT22;6666;51.626;7.530;2023-04-12T14:53:36;12.00;99.90
13203;DHT22;6666;51.626;7.530;2023-04-12T14:56:15;11.80;99.90
13203;DHT22;6666;51.626;7.530;2023-04-12T14:58:44;11.60;99.90
13203;DHT22;6666;51.626;7.530;2023-04-12T15:01:12;11.40;99.90
13203;DHT22;6666;51.626;7.530;2023-04-12T15:03:44;11.30;99.90
13203;DHT22;6666;51.626;7.530;2023-04-12T15:06:13;11.20;99.90
13203;DHT22;6666;51.626;7.530;2023-04-12T15:08:43;11.20;99.90
13203;DHT22;6666;51.626;7.530;2023-04-12T15:11:12;11.00;99.90
13203;DHT22;6666;51.626;7.530;2023-04-12T15:13:41;11.00;99.90
13203;DHT22;6666;51.626;7.530;2023-04-12T15:16:10;10.90;99.90
13203;DHT22;6666;51.626;7.530;2023-04-12T15:18:40;10.70;99.90
13203;DHT22;6666;51.626;7.530;2023-04-12T15:21:09;10.40;99.90
13203;DHT22;6666;51.626;7.530;2023-04-12T15:23:39;10.30;99.90
13203;DHT22;6666;51.626;7.530;2023-04-12T15:26:09;10.40;99.90
13203;DHT22;6666;51.626;7.530;2023-04-12T15:28:40;10.20;99.90
13203;DHT22;6666;51.626;7.530;2023-04-12T15:31:08;10.30;99.90
13203;DHT22;6666;51.626;7.530;2023-04-12T15:33:38;10.30;99.90
13203;DHT22;6666;51.626;7.530;2023-04-12T15:36:07;10.40;99.90
13203;DHT22;6666;51.626;7.530;2023-04-12T15:38:39;10.60;99.90
13203;DHT22;6666;51.626;7.530;2023-04-12T15:41:09;10.60;99.90
13203;DHT22;6666;51.626;7.530;2023-04-12T15:43:38;10.70;99.90
13203;DHT22;6666;51.626;7.530;2023-04-12T15:46:07;10.80;99.90
13203;DHT22;6666;51.626;7.530;2023-04-12T15:48:36;10.80;99.90
13203;DHT22;6666;51.626;7.530;2023-04-12T15:51:05;10.70;99.90
13203;DHT22;6666;51.626;7.530;2023-04-12T15:53:33;10.60;99.90
13203;DHT22;6666;51.626;7.530;2023-04-12T15:56:01;10.60;99.90
13203;DHT22;6666;51.626;7.530;2023-04-12T15:58:31;10.50;99.90
13203;DHT22;6666;51.626;7.530;2023-04-12T16:01:00;10.40;99.90
13203;DHT22;6666;51.626;7.530;2023-04-12T16:03:28;10.50;99.90
13203;DHT22;6666;51.626;7.530;2023-04-12T16:05:57;10.30;99.90
13203;DHT22;6666;51.626;7.530;2023-04-12T16:08:26;10.30;99.90
13203;DHT22;6666;51.626;7.530;2023-04-12T16:10:54;10.30;99.90
13203;DHT22;6666;51.626;7.530;2023-04-12T16:13:22;10.20;99.90
13203;DHT22;6666;51.626;7.530;2023-04-12T16:15:52;10.40;99.90
13203;DHT22;6666;51.626;7.530;2023-04-12T16:18:20;10.30;99.90